Pacific Dawn — 2AGH7 — position and weather

sailwx.info

Track history (hours):
 
Tides and Currents Weather Stations Pressure Air Temp Water Temp Dewpoint Dewpoint Depression Visibility Wind Speed Wind Dir Waves Ship Positions

Pacific Dawn

Last reported at 2016-Dec-03 13:33 UTC. Time now 2016-Dec-03 13:43 UTC.
Position S 26°09' E 154°55'.

Length 245 m; draft 8.3 m.

Type: Passenger vessel. MMSI: 235059368.

Date/timePositionNaut miles runAvg speedWind from/ knotsBaromVisibWave heightAir tempDewpointWater temp
2016-Dec-03 13:33S 26°09' E 154°55'2419.6
2016-Dec-03 12:22S 26°17' E 154°30'5819.2
2016-Dec-03 09:19S 26°37' E 153°29'1418.4
2016-Dec-03 08:33S 26°42' E 153°14'1110.8
2016-Dec-03 07:33S 26°52' E 153°09'1616.1
2016-Dec-03 06:33S 27°06' E 153°19'1413.8
2016-Dec-03 05:33S 27°18' E 153°13'1010.0
2016-Dec-03 04:34S 27°27' E 153°06'2 2.1
2016-Dec-03 03:33S 27°26' E 153°04'0 0.0
2016-Dec-03 02:33S 27°26' E 153°04'0 0.0
2016-Dec-03 01:33S 27°26' E 153°04'0 0.0
2016-Dec-03 00:33S 27°26' E 153°04'0 0.0
2016-Dec-02 23:33S 27°26' E 153°04'0 0.0
2016-Dec-02 22:33S 27°26' E 153°04'0 0.0
2016-Dec-02 21:33S 27°26' E 153°04'0 0.0
2016-Dec-02 20:33S 27°26' E 153°04'0 0.5
2016-Dec-02 19:33S 27°27' E 153°05'6 5.9
2016-Dec-02 18:33S 27°23' E 153°10'1313.1
2016-Dec-02 17:34S 27°14' E 153°20'1414.3
2016-Dec-02 16:33S 27°00' E 153°14'1813.6
2016-Dec-02 15:15S 26°43' E 153°12'1012.4
2016-Dec-02 14:28S 26°35' E 153°18'10112.7
2016-Dec-02 06:33S 24°55' E 153°37'22817.2
2016-Dec-01 17:20S 22°01' E 150°57'1618.9
2016-Dec-01 16:30S 21°51' E 150°44'4418.5
2016-Dec-01 14:09S 21°18' E 150°13'1718.3
2016-Dec-01 13:14S 21°05' E 150°01'6516.9
2016-Dec-01 09:23S 20°33' E 149°01'435 9.3
2016-Nov-29 10:31S 26°42' E 153°11'1111.6
2016-Nov-29 09:33S 26°53' E 153°11'1515.3
2016-Nov-29 08:33S 27°06' E 153°20'1313.5
2016-Nov-29 07:33S 27°18' E 153°13'9 9.3
2016-Nov-29 06:33S 27°26' E 153°07'3 2.4
2016-Nov-29 05:29S 27°26' E 153°04'0 0.0
2016-Nov-29 04:29S 27°26' E 153°04'0 0.0
2016-Nov-29 03:32S 27°26' E 153°04'0 0.0
2016-Nov-29 02:32S 27°26' E 153°04'0 0.0
2016-Nov-29 01:32S 27°26' E 153°04'0 0.0
2016-Nov-29 00:32S 27°26' E 153°04'0 0.0
2016-Nov-28 23:32S 27°26' E 153°04'0 0.0
2016-Nov-28 22:26S 27°26' E 153°04'0 0.0
2016-Nov-28 21:32S 27°26' E 153°04'0 0.0
2016-Nov-28 20:32S 27°26' E 153°04'0 0.2
2016-Nov-28 19:33S 27°27' E 153°04'6 5.9
2016-Nov-28 18:33S 27°23' E 153°09'1312.7
2016-Nov-28 17:33S 27°14' E 153°20'1514.8
2016-Nov-28 16:34S 27°00' E 153°14'1414.2
2016-Nov-28 15:34S 26°46' E 153°11'10 9.6
2016-Nov-28 14:32S 26°40' E 153°19'11 0.3
2016-Nov-27 07:26S 26°38' E 153°31'1820.3
2016-Nov-27 06:33S 26°29' E 153°49'31 1.6
2016-Nov-26 11:09S 26°40' E 153°16'1010.8
2016-Nov-26 10:14S 26°48' E 153°11'913.4
2016-Nov-26 09:33S 26°57' E 153°13'1515.3
2016-Nov-26 08:33S 27°11' E 153°21'1514.6
2016-Nov-26 07:33S 27°22' E 153°10'7 6.8
2016-Nov-26 06:33S 27°27' E 153°05'1 0.9
2016-Nov-26 05:32S 27°26' E 153°04'0 0.0
2016-Nov-26 04:32S 27°26' E 153°04'0 0.0
2016-Nov-26 03:32S 27°26' E 153°04'0 0.0
2016-Nov-26 02:32S 27°26' E 153°04'0 0.0
2016-Nov-26 01:26S 27°26' E 153°04'0 0.0
2016-Nov-26 00:29S 27°26' E 153°04'0 0.0
2016-Nov-25 23:32S 27°26' E 153°04'0 0.0
2016-Nov-25 22:32S 27°26' E 153°04'0 0.0
2016-Nov-25 21:32S 27°26' E 153°04'0 0.0
2016-Nov-25 20:32S 27°26' E 153°04'0 0.0
2016-Nov-25 19:33S 27°26' E 153°04'5 5.1
2016-Nov-25 18:34S 27°24' E 153°09'1211.7
2016-Nov-25 17:33S 27°15' E 153°18'1514.5
2016-Nov-25 16:33S 27°01' E 153°15'1914.5
2016-Nov-25 15:15S 26°42' E 153°11'20316.6
2016-Nov-25 03:00S 24°42' E 156°12'13018.6 110 / 151008.310.8 24.021.024.0
2016-Nov-24 20:00S 23°24' E 158°06'10220.5 150 / 191009.710.8 24.022.525.0
2016-Nov-24 15:00S 22°24' E 159°36'13118.7 140 / 141004.710.8 24.022.525.0
2016-Nov-24 08:00S 20°48' E 161°12'9519.0 050 / 101006.210.8 27.024.124.0
2016-Nov-24 03:00S 19°36' E 162°18'20817.3 070 / 141004.810.8 29.024.825.0
2016-Nov-23 15:00S 18°06' E 165°36'   090 / 181005.110.8 26.024.623.0
Track history (hours):
 
Tides and Currents Weather Stations Pressure Air Temp Water Temp Dewpoint Dewpoint Depression Visibility Wind Speed Wind Dir Waves Ship Positions

Pacific Dawn

Last reported at 2016-Dec-03 13:33 UTC. Time now 2016-Dec-03 13:43 UTC.
Position S 26°09' E 154°55'.

Length 245 m; draft 8.3 m.

Type: Passenger vessel. MMSI: 235059368.

Date/timePositionNaut miles runAvg speedWind from/ knotsBaromVisibWave heightAir tempDewpointWater temp
2016-Dec-03 13:33S 26°09' E 154°55'2419.6
2016-Dec-03 12:22S 26°17' E 154°30'5819.2
2016-Dec-03 09:19S 26°37' E 153°29'1418.4
2016-Dec-03 08:33S 26°42' E 153°14'1110.8
2016-Dec-03 07:33S 26°52' E 153°09'1616.1
2016-Dec-03 06:33S 27°06' E 153°19'1413.8
2016-Dec-03 05:33S 27°18' E 153°13'1010.0
2016-Dec-03 04:34S 27°27' E 153°06'2 2.1
2016-Dec-03 03:33S 27°26' E 153°04'0 0.0
2016-Dec-03 02:33S 27°26' E 153°04'0 0.0
2016-Dec-03 01:33S 27°26' E 153°04'0 0.0
2016-Dec-03 00:33S 27°26' E 153°04'0 0.0
2016-Dec-02 23:33S 27°26' E 153°04'0 0.0
2016-Dec-02 22:33S 27°26' E 153°04'0 0.0
2016-Dec-02 21:33S 27°26' E 153°04'0 0.0
2016-Dec-02 20:33S 27°26' E 153°04'0 0.5
2016-Dec-02 19:33S 27°27' E 153°05'6 5.9
2016-Dec-02 18:33S 27°23' E 153°10'1313.1
2016-Dec-02 17:34S 27°14' E 153°20'1414.3
2016-Dec-02 16:33S 27°00' E 153°14'1813.6
2016-Dec-02 15:15S 26°43' E 153°12'1012.4
2016-Dec-02 14:28S 26°35' E 153°18'10112.7
2016-Dec-02 06:33S 24°55' E 153°37'22817.2
2016-Dec-01 17:20S 22°01' E 150°57'1618.9
2016-Dec-01 16:30S 21°51' E 150°44'4418.5
2016-Dec-01 14:09S 21°18' E 150°13'1718.3
2016-Dec-01 13:14S 21°05' E 150°01'6516.9
2016-Dec-01 09:23S 20°33' E 149°01'435 9.3
2016-Nov-29 10:31S 26°42' E 153°11'1111.6
2016-Nov-29 09:33S 26°53' E 153°11'1515.3
2016-Nov-29 08:33S 27°06' E 153°20'1313.5
2016-Nov-29 07:33S 27°18' E 153°13'9 9.3
2016-Nov-29 06:33S 27°26' E 153°07'3 2.4
2016-Nov-29 05:29S 27°26' E 153°04'0 0.0
2016-Nov-29 04:29S 27°26' E 153°04'0 0.0
2016-Nov-29 03:32S 27°26' E 153°04'0 0.0
2016-Nov-29 02:32S 27°26' E 153°04'0 0.0
2016-Nov-29 01:32S 27°26' E 153°04'0 0.0
2016-Nov-29 00:32S 27°26' E 153°04'0 0.0
2016-Nov-28 23:32S 27°26' E 153°04'0 0.0
2016-Nov-28 22:26S 27°26' E 153°04'0 0.0
2016-Nov-28 21:32S 27°26' E 153°04'0 0.0
2016-Nov-28 20:32S 27°26' E 153°04'0 0.2
2016-Nov-28 19:33S 27°27' E 153°04'6 5.9
2016-Nov-28 18:33S 27°23' E 153°09'1312.7
2016-Nov-28 17:33S 27°14' E 153°20'1514.8
2016-Nov-28 16:34S 27°00' E 153°14'1414.2
2016-Nov-28 15:34S 26°46' E 153°11'10 9.6
2016-Nov-28 14:32S 26°40' E 153°19'11 0.3
2016-Nov-27 07:26S 26°38' E 153°31'1820.3
2016-Nov-27 06:33S 26°29' E 153°49'31 1.6
2016-Nov-26 11:09S 26°40' E 153°16'1010.8
2016-Nov-26 10:14S 26°48' E 153°11'913.4
2016-Nov-26 09:33S 26°57' E 153°13'1515.3
2016-Nov-26 08:33S 27°11' E 153°21'1514.6
2016-Nov-26 07:33S 27°22' E 153°10'7 6.8
2016-Nov-26 06:33S 27°27' E 153°05'1 0.9
2016-Nov-26 05:32S 27°26' E 153°04'0 0.0
2016-Nov-26 04:32S 27°26' E 153°04'0 0.0
2016-Nov-26 03:32S 27°26' E 153°04'0 0.0
2016-Nov-26 02:32S 27°26' E 153°04'0 0.0
2016-Nov-26 01:26S 27°26' E 153°04'0 0.0
2016-Nov-26 00:29S 27°26' E 153°04'0 0.0
2016-Nov-25 23:32S 27°26' E 153°04'0 0.0
2016-Nov-25 22:32S 27°26' E 153°04'0 0.0
2016-Nov-25 21:32S 27°26' E 153°04'0 0.0
2016-Nov-25 20:32S 27°26' E 153°04'0 0.0
2016-Nov-25 19:33S 27°26' E 153°04'5 5.1
2016-Nov-25 18:34S 27°24' E 153°09'1211.7
2016-Nov-25 17:33S 27°15' E 153°18'1514.5
2016-Nov-25 16:33S 27°01' E 153°15'1914.5
2016-Nov-25 15:15S 26°42' E 153°11'20316.6
2016-Nov-25 03:00S 24°42' E 156°12'13018.6 110 / 151008.310.8 24.021.024.0
2016-Nov-24 20:00S 23°24' E 158°06'10220.5 150 / 191009.710.8 24.022.525.0
2016-Nov-24 15:00S 22°24' E 159°36'13118.7 140 / 141004.710.8 24.022.525.0
2016-Nov-24 08:00S 20°48' E 161°12'9519.0 050 / 101006.210.8 27.024.124.0
2016-Nov-24 03:00S 19°36' E 162°18'20817.3 070 / 141004.810.8 29.024.825.0
2016-Nov-23 15:00S 18°06' E 165°36'   090 / 181005.110.8 26.024.623.0

Dump ship's entire track history